createdAt,value
2022-09-10T00:01:29.577Z,14.36
2022-09-10T00:03:57.244Z,14.31
2022-09-10T00:06:27.941Z,14.29
2022-09-10T00:08:59.215Z,14.22
2022-09-10T00:11:31.219Z,14.21
2022-09-10T00:14:09.101Z,14.16
2022-09-10T00:16:35.965Z,14.14
2022-09-10T00:19:02.998Z,14.10
2022-09-10T00:21:30.207Z,14.07
2022-09-10T00:23:57.958Z,14.03
2022-09-10T00:26:28.979Z,14.00
2022-09-10T00:29:01.539Z,14.00
2022-09-10T00:31:30.868Z,13.93
2022-09-10T00:34:00.448Z,13.93
2022-09-10T00:36:36.137Z,13.91
2022-09-10T00:39:15.752Z,13.96
2022-09-10T00:41:46.806Z,13.97
2022-09-10T00:44:41.580Z,13.97
2022-09-10T00:47:21.887Z,14.00
2022-09-10T00:49:54.471Z,14.05
2022-09-10T00:52:21.458Z,13.98
2022-09-10T00:54:48.568Z,13.99
2022-09-10T00:57:21.044Z,13.96
2022-09-10T00:59:54.970Z,13.98
2022-09-10T01:02:21.974Z,14.01
2022-09-10T01:04:49.868Z,14.03
2022-09-10T01:07:16.808Z,14.08
2022-09-10T01:09:44.264Z,14.11
2022-09-10T01:13:16.295Z,14.14
2022-09-10T01:15:57.937Z,14.20
2022-09-10T01:19:03.198Z,14.17
2022-09-10T01:21:57.599Z,14.22
2022-09-10T01:24:39.168Z,14.23
2022-09-10T01:27:37.329Z,14.19
2022-09-10T01:30:07.663Z,14.24
2022-09-10T01:33:35.662Z,14.13
2022-09-10T01:36:12.834Z,14.26
2022-09-10T01:38:42.376Z,14.31
2022-09-10T01:41:10.347Z,14.32
2022-09-10T01:43:37.779Z,14.30
2022-09-10T01:46:28.504Z,14.29
2022-09-10T01:49:22.416Z,14.29
2022-09-10T01:52:28.755Z,14.32
2022-09-10T01:55:17.378Z,14.14
2022-09-10T01:58:03.526Z,14.28
2022-09-10T02:00:33.553Z,14.30
2022-09-10T02:03:23.714Z,14.28
2022-09-10T02:05:54.283Z,14.27
2022-09-10T02:08:31.282Z,14.26
2022-09-10T02:11:06.520Z,14.23
2022-09-10T02:13:34.810Z,14.11
2022-09-10T02:16:04.127Z,14.20
2022-09-10T02:18:35.644Z,14.19
2022-09-10T02:21:03.361Z,14.14
2022-09-10T02:23:44.750Z,14.13
2022-09-10T02:26:14.561Z,14.11
2022-09-10T02:28:45.644Z,14.11
2022-09-10T02:31:13.127Z,14.13
2022-09-10T02:33:39.960Z,14.12
2022-09-10T02:36:07.227Z,14.11
2022-09-10T02:38:34.276Z,14.16
2022-09-10T02:41:01.100Z,14.13
2022-09-10T02:43:29.373Z,14.14
2022-09-10T02:45:59.848Z,14.15
2022-09-10T02:48:28.451Z,14.17
2022-09-10T02:50:55.220Z,14.17
2022-09-10T02:53:22.133Z,14.16
2022-09-10T02:55:49.135Z,14.13
2022-09-10T02:58:17.079Z,14.12
2022-09-10T03:00:45.769Z,14.12
2022-09-10T03:03:12.710Z,14.12
2022-09-10T03:05:41.776Z,14.15
2022-09-10T03:08:09.776Z,14.12
2022-09-10T03:10:38.566Z,14.12
2022-09-10T03:13:05.304Z,14.12
2022-09-10T03:15:32.210Z,14.15
2022-09-10T03:17:58.960Z,14.14
2022-09-10T03:20:26.063Z,14.17
2022-09-10T03:22:52.822Z,14.15
2022-09-10T03:25:19.937Z,14.11
2022-09-10T03:27:47.078Z,14.09
2022-09-10T03:30:14.334Z,14.07
2022-09-10T03:32:41.991Z,14.00
2022-09-10T03:35:10.289Z,13.94
2022-09-10T03:37:37.268Z,13.89
2022-09-10T03:40:05.795Z,13.82
2022-09-10T03:42:33.096Z,13.77
2022-09-10T03:44:59.894Z,13.69
2022-09-10T03:47:26.956Z,13.61
2022-09-10T03:49:53.890Z,13.58
2022-09-10T03:52:22.884Z,13.47
2022-09-10T03:54:51.198Z,13.40
2022-09-10T03:57:18.126Z,13.33
2022-09-10T03:59:46.170Z,13.25
2022-09-10T04:02:13.387Z,13.23
2022-09-10T04:04:41.495Z,13.16
2022-09-10T04:07:10.900Z,13.10
2022-09-10T04:09:37.702Z,13.06
2022-09-10T04:12:04.702Z,13.01
2022-09-10T04:14:32.211Z,12.97
2022-09-10T04:16:59.097Z,12.94
2022-09-10T04:19:27.740Z,12.93
2022-09-10T04:21:54.823Z,12.92
2022-09-10T04:24:21.869Z,12.93
2022-09-10T04:26:48.680Z,12.96
2022-09-10T04:29:15.478Z,13.00
2022-09-10T04:31:42.466Z,13.04
2022-09-10T04:34:09.264Z,13.09
2022-09-10T04:36:36.292Z,13.11
2022-09-10T04:39:03.519Z,13.14
2022-09-10T04:41:30.450Z,13.16
2022-09-10T04:43:57.681Z,13.18
2022-09-10T04:46:25.088Z,13.19
2022-09-10T04:48:52.388Z,13.22
2022-09-10T04:51:19.305Z,13.27
2022-09-10T04:53:46.654Z,13.28
2022-09-10T04:56:14.063Z,13.30
2022-09-10T04:58:41.483Z,13.32
2022-09-10T05:01:08.819Z,13.33
2022-09-10T05:03:35.934Z,13.39
2022-09-10T05:06:03.590Z,13.38
2022-09-10T05:08:30.438Z,13.39
2022-09-10T05:10:57.955Z,13.42
2022-09-10T05:13:24.815Z,13.40
2022-09-10T05:15:51.562Z,13.50
2022-09-10T05:18:18.307Z,13.53
2022-09-10T05:20:45.695Z,13.55
2022-09-10T05:23:12.829Z,13.53
2022-09-10T05:25:39.643Z,13.51
2022-09-10T05:28:06.404Z,13.55
2022-09-10T05:30:33.384Z,13.54
2022-09-10T05:33:01.868Z,13.55
2022-09-10T05:35:29.427Z,13.51
2022-09-10T05:38:01.191Z,13.50
2022-09-10T05:40:29.222Z,13.54
2022-09-10T05:42:56.342Z,13.50
2022-09-10T05:45:23.663Z,13.53
2022-09-10T05:47:51.581Z,13.56
2022-09-10T05:50:19.010Z,13.59
2022-09-10T05:52:47.084Z,13.55
2022-09-10T05:55:14.446Z,13.59
2022-09-10T05:57:41.903Z,13.56
2022-09-10T06:00:09.821Z,13.58
2022-09-10T06:02:37.390Z,13.55
2022-09-10T06:05:05.028Z,13.59
2022-09-10T06:07:32.314Z,13.59
2022-09-10T06:10:00.277Z,13.60
2022-09-10T06:12:27.535Z,13.65
2022-09-10T06:14:54.803Z,13.64
2022-09-10T06:17:21.545Z,13.69
2022-09-10T06:19:48.392Z,13.72
2022-09-10T06:22:15.142Z,13.75
2022-09-10T06:24:42.390Z,13.79
2022-09-10T06:27:09.961Z,13.82
2022-09-10T06:29:36.919Z,13.81
2022-09-10T06:32:04.835Z,13.84
2022-09-10T06:34:31.742Z,13.88
2022-09-10T06:36:58.660Z,13.93
2022-09-10T06:39:25.471Z,13.93
2022-09-10T06:41:53.806Z,13.94
2022-09-10T06:44:21.468Z,13.97
2022-09-10T06:47:28.259Z,14.01
2022-09-10T06:49:36.683Z,14.02
2022-09-10T06:52:03.743Z,14.11
2022-09-10T06:54:30.826Z,14.13
2022-09-10T06:56:58.243Z,14.17
2022-09-10T06:59:25.289Z,14.21
2022-09-10T07:01:52.195Z,14.29
2022-09-10T07:04:19.193Z,14.23
2022-09-10T07:06:47.691Z,14.29
2022-09-10T07:09:15.210Z,14.33
2022-09-10T07:11:42.196Z,14.38
2022-09-10T07:14:14.027Z,14.43
2022-09-10T07:16:41.699Z,14.45
2022-09-10T07:19:09.875Z,14.54
2022-09-10T07:21:38.082Z,14.58
2022-09-10T07:24:06.270Z,14.67
2022-09-10T07:26:33.543Z,14.76
2022-09-10T07:29:00.522Z,14.80
2022-09-10T07:31:31.768Z,14.89
2022-09-10T07:33:59.100Z,14.94
2022-09-10T07:36:26.240Z,15.02
2022-09-10T07:38:57.634Z,15.08
2022-09-10T07:41:28.364Z,15.11
2022-09-10T07:43:55.716Z,15.20
2022-09-10T07:46:25.819Z,15.19
2022-09-10T07:48:58.796Z,15.24
2022-09-10T07:51:29.306Z,15.20
2022-09-10T07:53:59.390Z,15.26
2022-09-10T07:56:26.753Z,15.30
2022-09-10T07:58:57.150Z,15.35
2022-09-10T08:01:24.161Z,15.34
2022-09-10T08:03:51.188Z,15.37
2022-09-10T08:06:18.747Z,15.42
2022-09-10T08:08:45.625Z,15.46
2022-09-10T08:11:16.735Z,15.47
2022-09-10T08:13:46.558Z,15.53
2022-09-10T08:16:18.015Z,15.60
2022-09-10T08:18:47.786Z,15.62
2022-09-10T08:21:16.075Z,15.71
2022-09-10T08:23:45.876Z,15.76
2022-09-10T08:26:12.624Z,15.79
2022-09-10T08:28:40.226Z,15.90
2022-09-10T08:31:11.771Z,15.96
2022-09-10T08:33:39.914Z,16.03
2022-09-10T08:36:11.021Z,16.14
2022-09-10T08:38:40.336Z,16.15
2022-09-10T08:41:13.562Z,16.17
2022-09-10T08:43:51.829Z,16.23
2022-09-10T08:46:32.531Z,16.28
2022-09-10T08:49:13.942Z,16.29
2022-09-10T08:51:48.823Z,16.36
2022-09-10T08:54:22.614Z,16.38
2022-09-10T08:56:50.902Z,16.42
2022-09-10T08:59:26.810Z,16.49
2022-09-10T09:02:02.663Z,16.60
2022-09-10T09:05:03.322Z,16.73
2022-09-10T09:07:40.478Z,16.90
2022-09-10T09:10:25.840Z,16.98
2022-09-10T09:13:22.072Z,17.12
2022-09-10T09:16:44.806Z,17.27
2022-09-10T09:19:36.856Z,17.30
2022-09-10T09:22:19.287Z,17.34
2022-09-10T09:24:58.014Z,17.22
2022-09-10T09:27:30.679Z,17.17
2022-09-10T09:30:08.022Z,17.17
2022-09-10T09:32:41.227Z,17.16
2022-09-10T09:35:35.020Z,17.21
2022-09-10T09:38:07.749Z,17.20
2022-09-10T09:41:00.622Z,17.22
2022-09-10T09:43:54.551Z,17.41
2022-09-10T09:46:23.142Z,17.55
2022-09-10T09:48:55.562Z,17.69
2022-09-10T09:51:25.495Z,17.89
2022-09-10T09:54:25.858Z,18.12
2022-09-10T09:56:50.371Z,18.43
2022-09-10T09:59:35.568Z,18.67
2022-09-10T10:02:13.263Z,18.75
2022-09-10T10:04:54.419Z,18.74
2022-09-10T10:07:34.004Z,18.69
2022-09-10T10:10:04.002Z,18.72
2022-09-10T10:12:32.411Z,18.78
2022-09-10T10:15:01.262Z,18.75
2022-09-10T10:17:40.235Z,18.69
2022-09-10T10:20:10.457Z,18.68
2022-09-10T10:22:40.760Z,18.68
2022-09-10T10:25:42.392Z,18.63
2022-09-10T10:28:22.226Z,18.64
2022-09-10T10:30:59.512Z,18.67
2022-09-10T10:33:33.360Z,18.74
2022-09-10T10:36:23.987Z,18.94
2022-09-10T10:39:15.795Z,19.08
2022-09-10T10:42:14.091Z,19.19
2022-09-10T10:45:05.479Z,19.22
2022-09-10T10:47:51.571Z,19.39
2022-09-10T10:50:40.531Z,19.55
2022-09-10T10:53:26.923Z,19.74
2022-09-10T10:56:17.476Z,19.90
2022-09-10T10:58:57.428Z,20.04
2022-09-10T11:01:30.485Z,20.03
2022-09-10T11:04:22.912Z,20.06
2022-09-10T11:07:00.068Z,20.08
2022-09-10T11:09:34.348Z,20.08
2022-09-10T11:12:20.161Z,20.11
2022-09-10T11:14:58.747Z,20.30
2022-09-10T11:17:51.898Z,20.41
2022-09-10T11:20:30.479Z,20.51
2022-09-10T11:23:26.566Z,20.63
2022-09-10T11:26:15.264Z,20.69
2022-09-10T11:28:54.479Z,20.63
2022-09-10T11:31:34.091Z,20.67
2022-09-10T11:34:12.519Z,20.67
2022-09-10T11:36:53.719Z,20.58
2022-09-10T11:39:37.826Z,20.34
2022-09-10T11:42:28.021Z,20.30
2022-09-10T11:45:05.668Z,20.28
2022-09-10T11:47:44.438Z,20.39
2022-09-10T11:50:21.731Z,20.51
2022-09-10T11:52:49.263Z,20.67
2022-09-10T11:55:21.739Z,20.75
2022-09-10T11:58:36.851Z,20.84
2022-09-10T12:01:56.146Z,20.96
2022-09-10T12:04:43.671Z,21.12
2022-09-10T12:07:46.117Z,21.07
2022-09-10T12:10:28.250Z,20.99
2022-09-10T12:12:54.980Z,20.78
2022-09-10T12:15:31.267Z,20.75
2022-09-10T12:18:05.390Z,20.61
2022-09-10T12:20:57.314Z,20.58
2022-09-10T12:23:29.949Z,20.54
2022-09-10T12:26:05.668Z,20.53
2022-09-10T12:28:45.904Z,20.48
2022-09-10T12:31:16.241Z,20.52
2022-09-10T12:33:43.683Z,20.59
2022-09-10T12:36:15.687Z,20.65
2022-09-10T12:38:52.825Z,20.68
2022-09-10T12:41:25.819Z,20.66
2022-09-10T12:44:03.227Z,20.63
2022-09-10T12:46:31.675Z,20.69
2022-09-10T12:49:01.440Z,20.70
2022-09-10T12:51:51.805Z,20.61
2022-09-10T12:54:33.315Z,20.54
2022-09-10T12:57:31.637Z,20.53
2022-09-10T13:00:16.976Z,20.53
2022-09-10T13:02:43.744Z,20.52
2022-09-10T13:05:31.709Z,20.43
2022-09-10T13:08:12.442Z,20.35
2022-09-10T13:10:41.507Z,20.28
2022-09-10T13:13:24.679Z,20.23
2022-09-10T13:15:53.784Z,20.20
2022-09-10T13:18:29.145Z,20.22
2022-09-10T13:20:57.302Z,20.20
2022-09-10T13:23:47.421Z,20.29
2022-09-10T13:26:31.133Z,20.33
2022-09-10T13:28:59.865Z,20.44
2022-09-10T13:31:35.283Z,20.46
2022-09-10T13:34:18.172Z,20.49
2022-09-10T13:37:21.835Z,20.54
2022-09-10T13:39:48.806Z,20.61
2022-09-10T13:42:47.778Z,20.60
2022-09-10T13:45:50.873Z,20.56
2022-09-10T13:48:25.269Z,20.43
2022-09-10T13:51:12.564Z,20.48
2022-09-10T13:53:45.987Z,20.50
2022-09-10T13:56:21.779Z,20.56
2022-09-10T13:58:52.727Z,20.55
2022-09-10T14:01:19.570Z,20.60
2022-09-10T14:03:46.380Z,20.60
2022-09-10T14:06:22.909Z,20.57
2022-09-10T14:09:06.411Z,20.64
2022-09-10T14:11:41.959Z,20.75
2022-09-10T14:14:16.785Z,20.83
2022-09-10T14:16:50.791Z,20.86
2022-09-10T14:19:30.912Z,20.88
2022-09-10T14:21:58.287Z,20.91
2022-09-10T14:24:40.380Z,20.89
2022-09-10T14:27:24.463Z,20.86
2022-09-10T14:29:56.566Z,20.97
2022-09-10T14:32:26.412Z,20.92
2022-09-10T14:34:53.878Z,20.89
2022-09-10T14:37:38.260Z,20.88
2022-09-10T14:40:19.266Z,20.91
2022-09-10T14:42:49.175Z,20.90
2022-09-10T14:45:47.984Z,20.88
2022-09-10T14:48:35.734Z,20.91
2022-09-10T14:51:20.635Z,20.90
2022-09-10T14:53:52.364Z,20.87
2022-09-10T14:56:34.198Z,20.88
2022-09-10T14:59:05.884Z,20.89
2022-09-10T15:01:33.083Z,20.84
2022-09-10T15:04:00.019Z,20.88
2022-09-10T15:06:27.589Z,20.90
2022-09-10T15:08:58.162Z,20.88
2022-09-10T15:11:28.323Z,20.86
2022-09-10T15:13:56.259Z,20.91
2022-09-10T15:16:25.839Z,20.90
2022-09-10T15:18:52.621Z,20.88
2022-09-10T15:21:20.274Z,20.81
2022-09-10T15:23:48.347Z,20.80
2022-09-10T15:26:16.140Z,20.78
2022-09-10T15:28:42.932Z,20.76
2022-09-10T15:31:11.219Z,20.71
2022-09-10T15:33:38.133Z,20.61
2022-09-10T15:36:05.964Z,20.66
2022-09-10T15:38:32.780Z,20.58
2022-09-10T15:41:09.859Z,20.61
2022-09-10T15:43:41.451Z,20.57
2022-09-10T15:46:10.103Z,20.54
2022-09-10T15:48:37.359Z,20.52
2022-09-10T15:51:15.042Z,20.49
2022-09-10T15:53:43.566Z,20.53
2022-09-10T15:56:12.151Z,20.53
2022-09-10T15:58:39.753Z,20.54
2022-09-10T16:01:12.648Z,20.51
2022-09-10T16:03:47.455Z,20.54
2022-09-10T16:06:15.786Z,20.64
2022-09-10T16:08:42.761Z,20.61
2022-09-10T16:11:14.295Z,20.59
2022-09-10T16:13:41.371Z,20.64
2022-09-10T16:16:12.535Z,20.69
2022-09-10T16:18:39.313Z,20.71
2022-09-10T16:21:29.634Z,20.66
2022-09-10T16:23:59.143Z,20.69
2022-09-10T16:26:32.737Z,20.68
2022-09-10T16:29:04.099Z,20.65
2022-09-10T16:31:34.935Z,20.61
2022-09-10T16:34:05.414Z,20.59
2022-09-10T16:36:35.115Z,20.65
2022-09-10T16:39:05.201Z,20.65
2022-09-10T16:41:33.374Z,20.62
2022-09-10T16:44:00.813Z,20.59
2022-09-10T16:46:28.483Z,20.60
2022-09-10T16:48:56.855Z,20.64
2022-09-10T16:51:26.072Z,20.62
2022-09-10T16:54:02.603Z,20.61
2022-09-10T16:56:40.123Z,20.56
2022-09-10T16:59:10.455Z,20.61
2022-09-10T17:01:37.943Z,20.62
2022-09-10T17:04:07.310Z,20.52
2022-09-10T17:06:35.313Z,20.43
2022-09-10T17:09:02.934Z,20.43
2022-09-10T17:11:32.346Z,20.33
2022-09-10T17:14:03.375Z,20.25
2022-09-10T17:16:37.760Z,20.22
2022-09-10T17:19:13.190Z,20.13
2022-09-10T17:21:44.090Z,20.05
2022-09-10T17:24:13.239Z,20.01
2022-09-10T17:26:41.559Z,19.96
2022-09-10T17:29:17.415Z,19.88
2022-09-10T17:31:46.742Z,19.81
2022-09-10T17:34:19.996Z,19.76
2022-09-10T17:36:48.216Z,19.67
2022-09-10T17:39:16.250Z,19.62
2022-09-10T17:41:43.532Z,19.58
2022-09-10T17:44:11.817Z,19.53
2022-09-10T17:46:38.995Z,19.46
2022-09-10T17:49:06.421Z,19.41
2022-09-10T17:51:35.248Z,19.35
2022-09-10T17:54:03.450Z,19.29
2022-09-10T17:56:31.656Z,19.22
2022-09-10T17:59:01.812Z,19.16
2022-09-10T18:01:37.847Z,19.09
2022-09-10T18:04:06.548Z,19.04
2022-09-10T18:06:36.581Z,18.99
2022-09-10T18:09:05.103Z,18.92
2022-09-10T18:11:36.647Z,18.85
2022-09-10T18:14:04.363Z,18.80
2022-09-10T18:16:33.919Z,18.73
2022-09-10T18:19:04.504Z,18.65
2022-09-10T18:21:35.296Z,18.59
2022-09-10T18:24:14.143Z,18.50
2022-09-10T18:26:44.480Z,18.44
2022-09-10T18:29:25.055Z,18.37
2022-09-10T18:31:58.920Z,18.30
2022-09-10T18:34:31.219Z,18.22
2022-09-10T18:37:02.963Z,18.12
2022-09-10T18:39:33.246Z,18.07
2022-09-10T18:42:03.639Z,17.98
2022-09-10T18:44:37.249Z,17.93
2022-09-10T18:47:17.703Z,17.80
2022-09-10T18:49:50.737Z,17.70
2022-09-10T18:52:17.780Z,17.60
2022-09-10T18:54:46.609Z,17.55
2022-09-10T18:57:13.630Z,17.45
2022-09-10T18:59:40.527Z,17.37
2022-09-10T19:02:07.602Z,17.29
2022-09-10T19:04:45.013Z,17.26
2022-09-10T19:07:22.842Z,17.17
2022-09-10T19:09:49.650Z,17.10
2022-09-10T19:12:19.249Z,17.03
2022-09-10T19:14:46.307Z,16.99
2022-09-10T19:17:13.060Z,16.93
2022-09-10T19:19:39.865Z,16.87
2022-09-10T19:22:07.411Z,16.83
2022-09-10T19:24:54.041Z,16.80
2022-09-10T19:27:21.600Z,16.75
2022-09-10T19:29:49.954Z,16.69
2022-09-10T19:32:17.300Z,16.62
2022-09-10T19:34:44.546Z,16.58
2022-09-10T19:37:11.507Z,16.50
2022-09-10T19:39:38.331Z,16.46
2022-09-10T19:42:06.934Z,16.42
2022-09-10T19:44:34.163Z,16.39
2022-09-10T19:47:01.223Z,16.34
2022-09-10T19:49:28.089Z,16.30
2022-09-10T19:51:54.869Z,16.25
2022-09-10T19:54:22.892Z,16.21
2022-09-10T19:56:49.915Z,16.15
2022-09-10T19:59:17.370Z,16.12
2022-09-10T20:01:46.222Z,16.08
2022-09-10T20:04:14.262Z,16.06
2022-09-10T20:06:46.167Z,16.01
2022-09-10T20:09:13.489Z,15.97
2022-09-10T20:11:40.895Z,15.93
2022-09-10T20:14:13.511Z,15.90
2022-09-10T20:16:45.147Z,15.85
2022-09-10T20:19:18.582Z,15.81
2022-09-10T20:21:46.683Z,15.75
2022-09-10T20:24:14.387Z,15.71
2022-09-10T20:26:42.535Z,15.66
2022-09-10T20:29:18.215Z,15.60
2022-09-10T20:31:47.117Z,15.56
2022-09-10T20:34:17.577Z,15.53
2022-09-10T20:36:45.185Z,15.47
2022-09-10T20:39:15.974Z,15.43
2022-09-10T20:41:43.883Z,15.39
2022-09-10T20:44:14.824Z,15.34
2022-09-10T20:46:42.547Z,15.30
2022-09-10T20:49:12.763Z,15.26
2022-09-10T20:51:41.627Z,15.24
2022-09-10T20:54:13.151Z,15.19
2022-09-10T20:56:40.792Z,15.14
2022-09-10T20:59:07.718Z,15.13
2022-09-10T21:01:35.189Z,15.09
2022-09-10T21:04:03.146Z,15.02
2022-09-10T21:06:32.866Z,14.98
2022-09-10T21:09:00.719Z,14.95
2022-09-10T21:11:31.294Z,14.93
2022-09-10T21:14:02.083Z,14.87
2022-09-10T21:16:41.444Z,14.86
2022-09-10T21:19:15.451Z,14.79
2022-09-10T21:21:46.199Z,14.75
2022-09-10T21:24:19.304Z,14.72
2022-09-10T21:26:46.420Z,14.66
2022-09-10T21:29:17.057Z,14.58
2022-09-10T21:31:45.500Z,14.56
2022-09-10T21:34:13.652Z,14.51
2022-09-10T21:39:14.460Z,14.45
2022-09-10T21:41:47.848Z,14.42
2022-09-10T21:44:18.581Z,14.39
2022-09-10T21:46:47.372Z,14.34
2022-09-10T21:49:14.621Z,14.32
2022-09-10T21:51:42.113Z,14.29
2022-09-10T21:54:15.590Z,14.28
2022-09-10T21:56:42.416Z,14.21
2022-09-10T21:59:10.837Z,14.19
2022-09-10T22:01:39.398Z,14.15
2022-09-10T22:04:06.591Z,14.15
2022-09-10T22:06:34.497Z,14.13
2022-09-10T22:09:08.716Z,14.08
2022-09-10T22:11:41.393Z,14.06
2022-09-10T22:14:14.512Z,14.03
2022-09-10T22:16:41.546Z,13.99
2022-09-10T22:19:14.418Z,13.98
2022-09-10T22:21:41.366Z,13.94
2022-09-10T22:24:13.234Z,13.89
2022-09-10T22:26:43.411Z,13.86
2022-09-10T22:29:12.524Z,13.84
2022-09-10T22:31:39.408Z,13.80
2022-09-10T22:34:10.779Z,13.78
2022-09-10T22:36:40.715Z,13.77
2022-09-10T22:39:19.842Z,13.73
2022-09-10T22:41:48.277Z,13.68
2022-09-10T22:44:17.806Z,13.68
2022-09-10T22:46:45.068Z,13.65
2022-09-10T22:49:12.081Z,13.64
2022-09-10T22:51:41.180Z,13.61
2022-09-10T22:54:10.828Z,13.60
2022-09-10T22:56:38.206Z,13.58
2022-09-10T22:59:06.532Z,13.56
2022-09-10T23:01:38.324Z,13.53
2022-09-10T23:04:07.870Z,13.52
2022-09-10T23:06:37.725Z,13.49
2022-09-10T23:09:12.335Z,13.47
2022-09-10T23:11:41.927Z,13.44
2022-09-10T23:14:15.868Z,13.43
2022-09-10T23:16:48.020Z,13.43
2022-09-10T23:19:21.364Z,13.45
2022-09-10T23:21:51.338Z,13.48
2022-09-10T23:24:22.347Z,13.48
2022-09-10T23:26:49.454Z,13.50
2022-09-10T23:29:17.495Z,13.53
2022-09-10T23:31:46.494Z,13.54
2022-09-10T23:34:20.816Z,13.52
2022-09-10T23:36:49.527Z,13.54
2022-09-10T23:39:22.757Z,13.53
2022-09-10T23:41:52.734Z,13.52
2022-09-10T23:44:20.478Z,13.47
2022-09-10T23:46:48.203Z,13.45
2022-09-10T23:49:15.446Z,13.46
2022-09-10T23:51:42.602Z,13.44
2022-09-10T23:54:10.764Z,13.43
2022-09-10T23:56:37.985Z,13.40
2022-09-10T23:59:04.799Z,13.38
